createdAt,value
2019-05-10T00:00:08.497Z,2.70
2019-05-10T00:02:55.816Z,2.43
2019-05-10T00:05:43.360Z,2.67
2019-05-10T00:08:30.701Z,2.73
2019-05-10T00:11:19.434Z,2.77
2019-05-10T00:13:54.455Z,2.50
2019-05-10T00:16:25.300Z,2.47
2019-05-10T00:18:54.692Z,3.27
2019-05-10T00:21:24.048Z,2.60
2019-05-10T00:23:53.403Z,2.47
2019-05-10T00:26:22.723Z,2.67
2019-05-10T00:28:52.060Z,2.50
2019-05-10T00:31:21.393Z,2.73
2019-05-10T00:33:50.751Z,2.57
2019-05-10T00:36:20.086Z,2.63
2019-05-10T00:38:49.449Z,2.80
2019-05-10T00:41:18.771Z,2.57
2019-05-10T00:43:48.120Z,2.27
2019-05-10T00:46:17.498Z,2.90
2019-05-10T00:48:46.817Z,2.60
2019-05-10T00:51:16.163Z,2.47
2019-05-10T00:53:45.505Z,2.57
2019-05-10T00:56:14.867Z,2.57
2019-05-10T00:58:44.178Z,2.50
2019-05-10T01:01:13.527Z,2.70
2019-05-10T01:03:42.842Z,2.70
2019-05-10T01:06:12.209Z,2.40
2019-05-10T01:08:41.543Z,3.03
2019-05-10T01:11:10.900Z,2.57
2019-05-10T01:13:40.217Z,2.77
2019-05-10T01:16:09.546Z,2.30
2019-05-10T01:18:38.887Z,2.33
2019-05-10T01:21:08.240Z,2.57
2019-05-10T01:23:37.571Z,2.30
2019-05-10T01:26:06.881Z,2.60
2019-05-10T01:28:36.222Z,2.50
2019-05-10T01:31:05.585Z,2.23
2019-05-10T01:33:34.998Z,2.20
2019-05-10T01:36:04.314Z,2.20
2019-05-10T01:38:33.676Z,2.40
2019-05-10T01:41:03.018Z,2.37
2019-05-10T01:43:32.373Z,2.37
2019-05-10T01:46:01.668Z,2.40
2019-05-10T01:48:31.322Z,2.20
2019-05-10T01:51:00.774Z,2.33
2019-05-10T01:53:30.134Z,2.83
2019-05-10T01:55:59.468Z,2.63
2019-05-10T01:58:28.798Z,2.83
2019-05-10T02:00:58.154Z,2.40
2019-05-10T02:03:27.486Z,2.20
2019-05-10T02:05:56.827Z,2.90
2019-05-10T02:08:26.176Z,3.00
2019-05-10T02:10:55.543Z,2.80
2019-05-10T02:13:24.859Z,2.37
2019-05-10T02:15:54.198Z,2.83
2019-05-10T02:18:23.509Z,2.60
2019-05-10T02:20:52.859Z,3.00
2019-05-10T02:23:22.176Z,2.50
2019-05-10T02:26:07.192Z,2.80
2019-05-10T02:28:22.572Z,3.07
2019-05-10T02:30:51.912Z,3.00
2019-05-10T02:33:21.222Z,3.73
2019-05-10T02:35:50.555Z,3.53
2019-05-10T02:38:19.894Z,3.33
2019-05-10T02:40:49.203Z,3.23
2019-05-10T02:43:18.540Z,3.17
2019-05-10T02:45:47.914Z,3.33
2019-05-10T02:48:17.219Z,3.40
2019-05-10T02:50:46.570Z,3.10
2019-05-10T02:53:16.233Z,3.30
2019-05-10T02:55:46.373Z,3.30
2019-05-10T02:58:16.322Z,3.00
2019-05-10T03:00:48.983Z,3.20
2019-05-10T03:03:20.492Z,3.40
2019-05-10T03:05:52.242Z,2.87
2019-05-10T03:08:23.638Z,3.60
2019-05-10T03:10:57.429Z,4.33
2019-05-10T03:13:31.369Z,5.00
2019-05-10T03:16:04.733Z,4.83
2019-05-10T03:18:34.486Z,5.70
2019-05-10T03:21:09.759Z,4.90
2019-05-10T03:23:39.096Z,4.63
2019-05-10T03:26:08.416Z,4.27
2019-05-10T03:28:37.767Z,4.00
2019-05-10T03:31:07.203Z,3.70
2019-05-10T03:33:36.653Z,3.87
2019-05-10T03:36:06.163Z,3.67
2019-05-10T03:38:35.514Z,4.00
2019-05-10T03:41:04.935Z,3.60
2019-05-10T03:43:34.292Z,3.17
2019-05-10T03:46:03.659Z,2.93
2019-05-10T03:48:33.014Z,3.20
2019-05-10T03:51:02.381Z,3.30
2019-05-10T03:53:31.741Z,2.83
2019-05-10T03:56:01.093Z,2.80
2019-05-10T03:58:30.445Z,3.20
2019-05-10T04:00:59.762Z,2.87
2019-05-10T04:03:29.181Z,3.10
2019-05-10T04:05:58.520Z,3.10
2019-05-10T04:08:27.860Z,3.37
2019-05-10T04:10:57.234Z,2.87
2019-05-10T04:13:26.603Z,2.40
2019-05-10T04:15:56.011Z,2.90
2019-05-10T04:18:25.378Z,3.13
2019-05-10T04:20:54.693Z,2.83
2019-05-10T04:23:24.013Z,2.80
2019-05-10T04:25:53.362Z,2.97
2019-05-10T04:28:22.680Z,2.70
2019-05-10T04:30:52.043Z,2.73
2019-05-10T04:33:21.394Z,2.50
2019-05-10T04:35:50.767Z,3.20
2019-05-10T04:38:20.133Z,2.70
2019-05-10T04:40:49.548Z,2.73
2019-05-10T04:43:18.883Z,2.90
2019-05-10T04:45:48.258Z,2.33
2019-05-10T04:48:17.598Z,2.30
2019-05-10T04:50:49.176Z,2.50
2019-05-10T04:53:18.029Z,2.97
2019-05-10T04:55:47.385Z,2.27
2019-05-10T04:58:16.703Z,2.57
2019-05-10T05:00:46.071Z,3.10
2019-05-10T05:03:15.398Z,2.80
2019-05-10T05:05:44.772Z,2.83
2019-05-10T05:08:14.129Z,2.60
2019-05-10T05:10:43.500Z,2.73
2019-05-10T05:13:12.839Z,2.70
2019-05-10T05:15:42.176Z,3.10
2019-05-10T05:18:11.490Z,3.00
2019-05-10T05:20:40.840Z,2.30
2019-05-10T05:23:10.145Z,2.90
2019-05-10T05:25:40.412Z,2.83
2019-05-10T05:28:10.552Z,2.87
2019-05-10T05:30:39.875Z,2.80
2019-05-10T05:33:09.208Z,2.63
2019-05-10T05:35:38.552Z,2.60
2019-05-10T05:38:07.883Z,2.87
2019-05-10T05:40:37.246Z,2.60
2019-05-10T05:43:08.111Z,2.60
2019-05-10T05:45:37.636Z,2.27
2019-05-10T05:48:06.982Z,2.90
2019-05-10T05:50:36.301Z,2.90
2019-05-10T05:53:05.631Z,2.63
2019-05-10T05:55:35.001Z,2.50
2019-05-10T05:58:05.231Z,3.20
2019-05-10T06:00:37.769Z,2.80
2019-05-10T06:03:06.488Z,2.97
2019-05-10T06:05:37.307Z,3.13
2019-05-10T06:08:21.287Z,2.93
2019-05-10T06:10:37.963Z,2.87
2019-05-10T06:13:07.335Z,2.53
2019-05-10T06:15:36.741Z,2.60
2019-05-10T06:18:09.738Z,2.40
2019-05-10T06:20:38.284Z,3.03
2019-05-10T06:23:08.324Z,2.70
2019-05-10T06:25:40.121Z,2.70
2019-05-10T06:28:25.367Z,19.17
2019-05-10T06:30:39.914Z,11.60
2019-05-10T06:33:12.542Z,2.60
2019-05-10T06:35:40.303Z,2.33
2019-05-10T06:38:09.640Z,2.50
2019-05-10T06:40:46.509Z,2.40
2019-05-10T06:43:13.510Z,2.70
2019-05-10T06:45:41.124Z,2.60
2019-05-10T06:48:10.454Z,3.07
2019-05-10T06:50:39.822Z,2.70
2019-05-10T06:53:10.977Z,2.70
2019-05-10T06:55:40.357Z,3.10
2019-05-10T06:58:09.772Z,2.80
2019-05-10T07:00:45.110Z,2.80
2019-05-10T07:03:10.167Z,3.80
2019-05-10T07:05:39.522Z,3.10
2019-05-10T07:08:16.387Z,2.77
2019-05-10T07:10:39.965Z,3.07
2019-05-10T07:13:09.342Z,2.80
2019-05-10T07:15:42.032Z,2.70
2019-05-10T07:18:09.765Z,2.73
2019-05-10T07:20:42.778Z,3.10
2019-05-10T07:23:10.209Z,2.80
2019-05-10T07:25:43.665Z,2.67
2019-05-10T07:28:15.815Z,2.60
2019-05-10T07:30:41.943Z,2.93
2019-05-10T07:33:11.421Z,2.90
2019-05-10T07:35:40.799Z,3.10
2019-05-10T07:38:10.126Z,3.23
2019-05-10T07:40:39.459Z,3.03
2019-05-10T07:43:08.837Z,2.53
2019-05-10T07:45:38.162Z,3.10
2019-05-10T07:48:08.025Z,2.60
2019-05-10T07:50:42.396Z,2.67
2019-05-10T07:53:09.697Z,2.63
2019-05-10T07:55:39.082Z,2.30
2019-05-10T07:58:08.429Z,2.73
2019-05-10T08:00:43.880Z,2.43
2019-05-10T08:03:16.137Z,2.37
2019-05-10T08:05:39.945Z,2.20
2019-05-10T08:08:09.642Z,2.20
2019-05-10T08:10:39.454Z,2.73
2019-05-10T08:13:08.954Z,2.00
2019-05-10T08:15:38.664Z,2.20
2019-05-10T08:18:09.867Z,2.30
2019-05-10T08:20:49.335Z,2.40
2019-05-10T08:23:12.890Z,2.17
2019-05-10T08:25:46.827Z,2.20
2019-05-10T08:28:12.752Z,2.50
2019-05-10T08:30:52.247Z,2.73
2019-05-10T08:33:16.188Z,2.50
2019-05-10T08:35:46.459Z,2.80
2019-05-10T08:38:16.165Z,2.77
2019-05-10T08:40:45.561Z,2.63
2019-05-10T08:43:16.794Z,2.83
2019-05-10T08:45:49.397Z,2.80
2019-05-10T08:48:17.057Z,2.73
2019-05-10T08:50:55.955Z,2.93
2019-05-10T08:53:17.495Z,2.50
2019-05-10T08:55:46.859Z,2.90
2019-05-10T08:58:24.457Z,3.10
2019-05-10T09:00:54.818Z,2.80
2019-05-10T09:03:18.823Z,3.27
2019-05-10T09:05:48.267Z,3.20
2019-05-10T09:08:20.360Z,3.33
2019-05-10T09:10:48.669Z,3.53
2019-05-10T09:13:18.041Z,3.30
2019-05-10T09:15:51.593Z,3.63
2019-05-10T09:18:18.461Z,3.30
2019-05-10T09:20:47.813Z,3.70
2019-05-10T09:23:20.067Z,3.60
2019-05-10T09:25:48.256Z,4.03
2019-05-10T09:28:17.584Z,3.60
2019-05-10T09:30:57.511Z,3.40
2019-05-10T09:33:18.011Z,3.60
2019-05-10T09:35:54.184Z,3.60
2019-05-10T09:38:18.574Z,3.60
2019-05-10T09:40:52.742Z,3.30
2019-05-10T09:43:21.218Z,3.83
2019-05-10T09:45:50.077Z,3.73
2019-05-10T09:48:19.446Z,3.50
2019-05-10T09:50:48.812Z,3.93
2019-05-10T09:53:23.641Z,3.63
2019-05-10T09:55:55.185Z,4.00
2019-05-10T09:58:22.284Z,3.67
2019-05-10T10:00:51.388Z,3.63
2019-05-10T10:03:20.726Z,4.00
2019-05-10T10:05:55.225Z,3.60
2019-05-10T10:08:21.187Z,3.60
2019-05-10T10:10:50.551Z,3.70
2019-05-10T10:13:33.968Z,4.00
2019-05-10T10:15:52.454Z,3.67
2019-05-10T10:18:25.337Z,3.60
2019-05-10T10:20:53.150Z,4.27
2019-05-10T10:23:24.815Z,4.10
2019-05-10T10:25:53.609Z,4.10
2019-05-10T10:28:23.009Z,3.70
2019-05-10T10:30:59.081Z,3.77
2019-05-10T10:33:28.087Z,3.40
2019-05-10T10:35:56.551Z,3.60
2019-05-10T10:38:30.366Z,3.43
2019-05-10T10:40:57.630Z,3.10
2019-05-10T10:43:27.404Z,3.20
2019-05-10T10:45:57.389Z,3.07
2019-05-10T10:48:28.522Z,2.90
2019-05-10T10:50:58.799Z,3.27
2019-05-10T10:53:28.531Z,3.97
2019-05-10T10:56:03.632Z,4.43
2019-05-10T10:58:28.932Z,3.90
2019-05-10T11:00:58.286Z,4.60
2019-05-10T11:03:30.394Z,3.77
2019-05-10T11:05:58.702Z,4.17
2019-05-10T11:08:28.071Z,5.17
2019-05-10T11:10:57.397Z,5.07
2019-05-10T11:13:41.637Z,5.63
2019-05-10T11:15:58.841Z,5.00
2019-05-10T11:18:31.576Z,5.30
2019-05-10T11:21:01.975Z,4.40
2019-05-10T11:23:38.999Z,4.27
2019-05-10T11:26:02.240Z,3.77
2019-05-10T11:28:38.942Z,4.10
2019-05-10T11:31:02.670Z,4.07
2019-05-10T11:33:33.689Z,3.93
2019-05-10T11:36:08.399Z,3.17
2019-05-10T11:38:34.137Z,3.50
2019-05-10T11:41:07.131Z,3.10
2019-05-10T11:43:34.554Z,3.10
2019-05-10T11:46:03.909Z,3.00
2019-05-10T11:48:37.234Z,3.00
2019-05-10T11:51:05.650Z,3.30
2019-05-10T11:53:35.443Z,2.90
2019-05-10T11:56:07.874Z,3.70
2019-05-10T11:58:37.810Z,2.90
2019-05-10T12:01:14.677Z,3.07
2019-05-10T12:03:38.370Z,3.30
2019-05-10T12:06:09.079Z,2.40
2019-05-10T12:08:41.544Z,2.60
2019-05-10T12:11:25.505Z,2.73
2019-05-10T12:13:40.923Z,2.40
2019-05-10T12:16:12.340Z,2.67
2019-05-10T12:18:46.531Z,2.50
2019-05-10T12:21:12.478Z,2.50
2019-05-10T12:23:50.278Z,2.90
2019-05-10T12:27:13.340Z,2.10
2019-05-10T12:28:43.968Z,2.30
2019-05-10T12:31:16.956Z,2.67
2019-05-10T12:33:45.410Z,3.20
2019-05-10T12:36:23.699Z,2.80
2019-05-10T12:38:45.984Z,2.20
2019-05-10T12:41:15.348Z,2.57
2019-05-10T12:43:48.037Z,2.63
2019-05-10T12:46:15.766Z,2.60
2019-05-10T12:48:45.088Z,2.40
2019-05-10T12:51:16.331Z,2.90
2019-05-10T12:53:49.252Z,2.40
2019-05-10T12:56:16.586Z,1.77
2019-05-10T12:58:56.587Z,2.40
2019-05-10T13:01:16.977Z,2.37
2019-05-10T13:03:46.334Z,1.77
2019-05-10T13:06:19.322Z,2.10
2019-05-10T13:08:46.750Z,1.90
2019-05-10T13:11:18.877Z,1.80
2019-05-10T13:13:47.186Z,2.20
2019-05-10T13:16:16.555Z,2.43
2019-05-10T13:18:51.696Z,2.27
2019-05-10T13:21:20.663Z,2.03
2019-05-10T13:23:53.320Z,2.03
2019-05-10T13:26:19.132Z,1.80
2019-05-10T13:28:48.473Z,1.83
2019-05-10T13:31:17.831Z,2.57
2019-05-10T13:33:47.185Z,1.70
2019-05-10T13:36:16.523Z,2.00
2019-05-10T13:38:49.161Z,1.97
2019-05-10T13:41:17.762Z,1.70
2019-05-10T13:43:48.006Z,2.10
2019-05-10T13:46:17.354Z,1.60
2019-05-10T13:48:46.707Z,1.70
2019-05-10T13:51:16.053Z,1.57
2019-05-10T13:53:45.384Z,1.90
2019-05-10T13:56:14.733Z,1.47
2019-05-10T13:58:44.077Z,1.90
2019-05-10T14:01:14.858Z,1.50
2019-05-10T14:03:48.748Z,1.40
2019-05-10T14:06:15.518Z,1.53
2019-05-10T14:08:48.298Z,1.97
2019-05-10T14:11:15.956Z,1.43
2019-05-10T14:13:45.397Z,1.27
2019-05-10T14:16:19.470Z,1.70
2019-05-10T14:18:45.822Z,1.50
2019-05-10T14:21:15.183Z,1.40
2019-05-10T14:23:44.526Z,1.53
2019-05-10T14:26:16.021Z,1.60
2019-05-10T14:28:47.380Z,1.70
2019-05-10T14:31:15.996Z,1.47
2019-05-10T14:33:49.685Z,1.80
2019-05-10T14:36:16.436Z,1.43
2019-05-10T14:38:47.275Z,1.60
2019-05-10T14:41:16.833Z,1.60
2019-05-10T14:43:46.167Z,1.57
2019-05-10T14:46:15.523Z,1.83
2019-05-10T14:48:44.868Z,1.90
2019-05-10T14:51:14.222Z,1.97
2019-05-10T14:53:43.605Z,1.93
2019-05-10T14:56:14.153Z,1.73
2019-05-10T14:58:44.007Z,1.53
2019-05-10T15:01:13.377Z,1.83
2019-05-10T15:03:45.891Z,1.77
2019-05-10T15:06:13.793Z,1.80
2019-05-10T15:08:43.135Z,1.70
2019-05-10T15:11:12.502Z,1.70
2019-05-10T15:13:41.873Z,1.83
2019-05-10T15:16:13.108Z,1.80
2019-05-10T15:18:42.362Z,1.33
2019-05-10T15:21:11.737Z,1.90
2019-05-10T15:23:41.091Z,1.40
2019-05-10T15:26:12.059Z,1.60
2019-05-10T15:28:42.609Z,1.67
2019-05-10T15:31:12.097Z,1.30
2019-05-10T15:33:41.480Z,1.43
2019-05-10T15:36:10.806Z,1.40
2019-05-10T15:38:49.797Z,1.43
2019-05-10T15:41:11.267Z,1.70
2019-05-10T15:43:40.627Z,1.53
2019-05-10T15:46:09.972Z,1.63
2019-05-10T15:48:41.682Z,1.53
2019-05-10T15:51:11.291Z,1.50
2019-05-10T15:53:41.446Z,1.23
2019-05-10T15:56:10.807Z,1.77
2019-05-10T15:58:42.358Z,1.07
2019-05-10T16:01:14.173Z,1.60
2019-05-10T16:03:42.383Z,1.50
2019-05-10T16:06:11.729Z,1.30
2019-05-10T16:08:41.120Z,1.53
2019-05-10T16:11:18.005Z,1.30
2019-05-10T16:13:41.568Z,1.20
2019-05-10T16:16:10.947Z,1.50
2019-05-10T16:18:41.702Z,1.20
2019-05-10T16:21:15.121Z,1.40
2019-05-10T16:23:46.609Z,1.13
2019-05-10T16:26:17.480Z,1.20
2019-05-10T16:28:44.397Z,1.37
2019-05-10T16:31:13.739Z,1.00
2019-05-10T16:33:43.123Z,0.87
2019-05-10T16:36:12.450Z,1.37
2019-05-10T16:38:41.863Z,1.30
2019-05-10T16:41:11.248Z,1.60
2019-05-10T16:43:40.607Z,1.50
2019-05-10T16:46:10.251Z,1.60
2019-05-10T16:48:39.627Z,1.53
2019-05-10T16:51:10.153Z,1.67
2019-05-10T16:53:43.698Z,1.27
2019-05-10T16:56:13.403Z,1.47
2019-05-10T16:58:42.284Z,1.60
2019-05-10T17:01:11.703Z,1.50
2019-05-10T17:03:41.084Z,1.50
2019-05-10T17:06:10.491Z,1.50
2019-05-10T17:08:39.897Z,1.60
2019-05-10T17:11:10.190Z,1.60
2019-05-10T17:13:41.568Z,1.60
2019-05-10T17:16:16.380Z,1.50
2019-05-10T17:18:42.665Z,1.70
2019-05-10T17:21:12.027Z,2.03
2019-05-10T17:23:46.272Z,1.80
2019-05-10T17:26:12.512Z,1.60
2019-05-10T17:28:41.915Z,1.73
2019-05-10T17:31:11.347Z,1.07
2019-05-10T17:33:42.806Z,1.90
2019-05-10T17:36:14.599Z,1.73
2019-05-10T17:38:47.149Z,1.50
2019-05-10T17:41:14.090Z,1.77
2019-05-10T17:43:43.473Z,1.70
2019-05-10T17:46:18.522Z,1.60
2019-05-10T17:48:47.500Z,1.80
2019-05-10T17:51:15.069Z,1.80
2019-05-10T17:53:44.443Z,1.70
2019-05-10T17:56:13.821Z,2.07
2019-05-10T17:58:43.198Z,2.10
2019-05-10T18:01:12.557Z,1.50
2019-05-10T18:03:41.963Z,1.70
2019-05-10T18:06:23.085Z,1.43
2019-05-10T18:08:42.452Z,1.57
2019-05-10T18:11:11.839Z,1.27
2019-05-10T18:13:42.554Z,1.20
2019-05-10T18:16:11.946Z,1.60
2019-05-10T18:18:46.357Z,1.73
2019-05-10T18:21:15.973Z,1.40
2019-05-10T18:23:43.573Z,1.50
2019-05-10T18:26:12.929Z,1.37
2019-05-10T18:28:42.290Z,1.40
2019-05-10T18:31:11.637Z,1.73
2019-05-10T18:33:44.736Z,1.53
2019-05-10T18:36:12.078Z,1.60
2019-05-10T18:38:41.427Z,1.87
2019-05-10T18:41:11.840Z,2.03
2019-05-10T18:43:42.902Z,1.80
2019-05-10T18:46:12.360Z,1.50
2019-05-10T18:48:41.724Z,1.50
2019-05-10T18:51:11.111Z,1.70
2019-05-10T18:53:40.468Z,2.30
2019-05-10T18:56:09.846Z,1.80
2019-05-10T18:58:40.031Z,1.87
2019-05-10T19:01:09.415Z,2.03
2019-05-10T19:03:38.759Z,1.90
2019-05-10T19:06:10.940Z,2.23
2019-05-10T19:08:39.226Z,1.93
2019-05-10T19:11:08.800Z,2.07
2019-05-10T19:13:46.728Z,2.40
2019-05-10T19:16:09.217Z,2.30
2019-05-10T19:18:38.602Z,2.10
2019-05-10T19:21:08.014Z,2.20
2019-05-10T19:23:37.359Z,2.10
2019-05-10T19:26:06.704Z,1.93
2019-05-10T19:28:36.166Z,1.87
2019-05-10T19:31:05.516Z,2.20
2019-05-10T19:33:37.827Z,2.20
2019-05-10T19:36:12.558Z,1.87
2019-05-10T19:38:37.036Z,2.37
2019-05-10T19:41:06.431Z,2.40
2019-05-10T19:43:35.786Z,3.30
2019-05-10T19:46:05.116Z,3.00
2019-05-10T19:48:35.823Z,3.60
2019-05-10T19:51:09.605Z,3.10
2019-05-10T19:53:42.279Z,2.83
2019-05-10T19:56:07.780Z,3.07
2019-05-10T19:58:37.171Z,3.27
2019-05-10T20:01:06.533Z,2.97
2019-05-10T20:03:35.903Z,2.50
2019-05-10T20:06:05.280Z,3.03
2019-05-10T20:08:34.659Z,2.27
2019-05-10T20:11:04.001Z,2.57
2019-05-10T20:13:33.354Z,1.80
2019-05-10T20:16:02.707Z,2.50
2019-05-10T20:18:32.111Z,2.33
2019-05-10T20:21:01.500Z,2.30
2019-05-10T20:23:30.905Z,1.97
2019-05-10T20:26:00.466Z,2.60
2019-05-10T20:28:29.845Z,2.57
2019-05-10T20:30:59.225Z,2.10
2019-05-10T20:33:28.628Z,2.47
2019-05-10T20:35:58.005Z,2.30
2019-05-10T20:38:27.386Z,2.47
2019-05-10T20:40:56.707Z,2.70
2019-05-10T20:43:26.061Z,3.20
2019-05-10T20:45:55.455Z,2.60
2019-05-10T20:48:24.827Z,2.60
2019-05-10T20:50:54.178Z,2.47
2019-05-10T20:53:23.567Z,2.13
2019-05-10T20:55:52.955Z,3.17
2019-05-10T20:58:22.347Z,3.27
2019-05-10T21:00:51.703Z,3.93
2019-05-10T21:03:21.108Z,3.70
2019-05-10T21:05:50.499Z,3.80
2019-05-10T21:08:19.842Z,3.47
2019-05-10T21:10:49.217Z,3.40
2019-05-10T21:13:18.580Z,3.70
2019-05-10T21:15:47.960Z,2.90
2019-05-10T21:18:17.291Z,2.70
2019-05-10T21:20:46.697Z,3.00
2019-05-10T21:23:16.090Z,3.17
2019-05-10T21:25:45.436Z,3.60
2019-05-10T21:28:14.805Z,2.93
2019-05-10T21:30:44.125Z,3.70
2019-05-10T21:33:13.448Z,3.80
2019-05-10T21:35:42.841Z,3.03
2019-05-10T21:38:12.187Z,3.27
2019-05-10T21:40:41.543Z,3.10
2019-05-10T21:43:10.906Z,3.00
2019-05-10T21:45:40.307Z,3.00
2019-05-10T21:48:09.662Z,3.13
2019-05-10T21:50:39.040Z,3.23
2019-05-10T21:53:08.424Z,3.00
2019-05-10T21:55:37.782Z,3.20
2019-05-10T21:58:07.175Z,3.20
2019-05-10T22:00:39.954Z,3.03
2019-05-10T22:03:09.306Z,3.20
2019-05-10T22:05:38.697Z,2.90
2019-05-10T22:08:08.039Z,2.67
2019-05-10T22:10:37.432Z,3.07
2019-05-10T22:13:06.820Z,2.93
2019-05-10T22:15:36.209Z,2.70
2019-05-10T22:18:05.579Z,2.90
2019-05-10T22:20:34.990Z,3.10
2019-05-10T22:23:04.456Z,3.30
2019-05-10T22:25:33.822Z,3.13
2019-05-10T22:28:03.194Z,3.17
2019-05-10T22:30:32.606Z,3.40
2019-05-10T22:33:01.939Z,3.00
2019-05-10T22:35:31.366Z,3.30
2019-05-10T22:38:00.721Z,3.13
2019-05-10T22:40:30.073Z,3.13
2019-05-10T22:42:59.453Z,2.97
2019-05-10T22:45:28.785Z,3.30
2019-05-10T22:47:58.170Z,3.10
2019-05-10T22:50:27.534Z,3.23
2019-05-10T22:52:56.883Z,2.70
2019-05-10T22:55:29.035Z,2.73
2019-05-10T22:57:58.351Z,3.60
2019-05-10T23:00:27.932Z,3.30
2019-05-10T23:02:57.295Z,3.40
2019-05-10T23:05:26.654Z,3.47
2019-05-10T23:07:56.013Z,3.40
2019-05-10T23:10:25.403Z,3.50
2019-05-10T23:12:54.752Z,3.20
2019-05-10T23:15:24.087Z,3.57
2019-05-10T23:17:53.479Z,3.10
2019-05-10T23:20:22.885Z,3.57
2019-05-10T23:22:52.285Z,3.73
2019-05-10T23:25:21.645Z,3.43
2019-05-10T23:27:51.024Z,3.20
2019-05-10T23:30:20.363Z,3.00
2019-05-10T23:32:49.714Z,3.13
2019-05-10T23:35:19.080Z,3.37
2019-05-10T23:37:48.410Z,3.50
2019-05-10T23:40:17.777Z,3.50
2019-05-10T23:42:47.158Z,3.37
2019-05-10T23:45:16.494Z,3.80
2019-05-10T23:47:45.848Z,3.73
2019-05-10T23:50:15.526Z,3.97
2019-05-10T23:52:44.901Z,3.10
2019-05-10T23:55:14.276Z,3.60
2019-05-10T23:57:43.622Z,4.13
